Time;durP1;ratioP1;P1;durP2;ratioP2;P2;SDS_P1;SDS_P2;PMS_P1;PMS_P2;Temp;Humidity;BMP_temperature;BMP_pressure;BME280_temperature;BME280_humidity;BME280_pressure;Samples;Min_cycle;Max_cycle;Signal;HPM_P1;HPM_P2
2021/04/13 00:02:21;;;;;;;9.60;6.53;;;1.80;99.90;;;;;;5033093;28;20290;-81
2021/04/13 00:04:52;;;;;;;10.90;5.70;;;1.80;99.90;;;;;;5052416;28;21863;-81
2021/04/13 00:07:21;;;;;;;9.10;6.43;;;1.80;99.90;;;;;;5040620;28;20225;-81
2021/04/13 00:09:48;;;;;;;11.07;5.30;;;1.70;99.90;;;;;;5032243;28;20740;-81
2021/04/13 00:12:18;;;;;;;6.27;4.77;;;1.80;99.90;;;;;;5032506;28;20788;-82
2021/04/13 00:14:52;;;;;;;7.47;5.73;;;1.90;99.90;;;;;;5038836;28;20289;-81
2021/04/13 00:17:25;;;;;;;8.97;5.50;;;1.90;99.90;;;;;;5038830;28;20313;-82
2021/04/13 00:19:59;;;;;;;10.03;5.40;;;1.80;99.90;;;;;;5041549;28;20224;-82
2021/04/13 00:22:26;;;;;;;10.27;5.67;;;1.80;99.90;;;;;;5064561;28;20666;-80
2021/04/13 00:24:53;;;;;;;8.23;5.93;;;1.80;99.90;;;;;;5042775;28;20292;-80
2021/04/13 00:27:23;;;;;;;9.17;5.70;;;1.90;99.90;;;;;;5041783;28;20623;-80
2021/04/13 00:29:51;;;;;;;8.10;5.40;;;1.90;99.90;;;;;;5052054;28;20684;-81
2021/04/13 00:32:23;;;;;;;8.50;5.67;;;1.90;99.90;;;;;;5050132;28;20287;-81
2021/04/13 00:34:56;;;;;;;8.80;4.87;;;1.80;99.90;;;;;;5043996;28;20770;-81
2021/04/13 00:37:25;;;;;;;8.23;4.80;;;1.80;99.90;;;;;;5045693;28;20672;-82
2021/04/13 00:39:54;;;;;;;9.03;5.00;;;1.70;99.90;;;;;;5051813;28;20866;-81
2021/04/13 00:42:27;;;;;;;6.70;4.43;;;1.60;99.90;;;;;;5052069;28;20238;-82
2021/04/13 00:44:57;;;;;;;7.00;4.30;;;1.60;99.90;;;;;;5051893;28;20287;-81
2021/04/13 00:47:27;;;;;;;6.87;4.03;;;1.50;99.90;;;;;;5051149;28;20671;-80
2021/04/13 00:49:57;;;;;;;6.33;4.00;;;1.40;99.90;;;;;;5051426;28;20748;-81
2021/04/13 00:52:34;;;;;;;6.37;4.03;;;1.30;99.90;;;;;;5050932;28;20734;-82
2021/04/13 00:55:04;;;;;;;7.00;4.27;;;1.30;99.90;;;;;;5051806;28;20201;-81
2021/04/13 00:57:35;;;;;;;5.40;4.23;;;1.20;99.90;;;;;;5052188;28;20233;-81
2021/04/13 01:00:04;;;;;;;5.97;4.27;;;1.10;99.90;;;;;;5051874;28;20232;-81
2021/04/13 01:02:33;;;;;;;8.23;4.50;;;1.10;99.90;;;;;;5051889;28;20231;-81
2021/04/13 01:05:05;;;;;;;7.37;4.23;;;1.20;99.90;;;;;;5042543;28;20236;-82
2021/04/13 01:07:36;;;;;;;7.77;4.67;;;1.20;99.90;;;;;;5057481;28;20198;-82
2021/04/13 01:10:09;;;;;;;6.73;4.37;;;1.30;99.90;;;;;;5049551;28;20895;-81
2021/04/13 01:12:39;;;;;;;7.80;4.67;;;1.20;99.90;;;;;;5036635;28;20315;-81
2021/04/13 01:15:10;;;;;;;5.90;4.40;;;1.20;99.90;;;;;;5062726;28;20288;-81
2021/04/13 01:17:40;;;;;;;8.80;4.70;;;1.30;99.90;;;;;;5051304;28;20318;-81
2021/04/13 01:20:13;;;;;;;6.67;4.43;;;1.30;99.90;;;;;;5051364;28;20717;-81
2021/04/13 01:22:43;;;;;;;8.33;4.33;;;1.20;99.90;;;;;;5051685;28;20684;-81
2021/04/13 01:25:19;;;;;;;7.00;4.50;;;1.00;99.90;;;;;;5051853;28;20198;-81
2021/04/13 01:27:48;;;;;;;8.03;4.87;;;1.00;99.90;;;;;;5038906;28;20763;-81
2021/04/13 01:30:16;;;;;;;8.53;5.33;;;1.00;99.90;;;;;;5069620;28;20241;-81
2021/04/13 01:32:44;;;;;;;9.60;5.03;;;1.00;99.90;;;;;;5059415;28;20267;-81
2021/04/13 01:35:14;;;;;;;8.53;5.10;;;0.90;99.90;;;;;;5055032;28;20204;-81
2021/04/13 01:37:56;;;;;;;8.57;5.67;;;1.00;99.90;;;;;;5055504;28;20239;-81
2021/04/13 01:40:31;;;;;;;8.27;5.97;;;1.00;99.90;;;;;;5039183;28;20257;-81
2021/04/13 01:42:59;;;;;;;8.23;5.87;;;1.00;99.90;;;;;;5053591;28;20191;-81
2021/04/13 01:45:30;;;;;;;8.90;5.43;;;1.00;99.90;;;;;;5075396;28;20732;-81
2021/04/13 01:47:58;;;;;;;8.40;5.60;;;0.90;99.90;;;;;;5075054;28;20618;-80
2021/04/13 01:50:28;;;;;;;8.07;5.33;;;0.70;99.90;;;;;;5075502;28;20678;-82
2021/04/13 01:53:03;;;;;;;8.93;5.67;;;0.70;99.90;;;;;;5054494;28;20289;-81
2021/04/13 01:55:32;;;;;;;10.50;6.00;;;0.60;99.90;;;;;;5055526;28;20234;-81
2021/04/13 01:58:09;;;;;;;9.23;6.10;;;0.50;99.90;;;;;;5054192;28;20275;-81
2021/04/13 02:00:44;;;;;;;9.80;6.20;;;0.50;99.90;;;;;;5035440;28;20225;-81
2021/04/13 02:03:15;;;;;;;8.80;6.20;;;0.60;99.90;;;;;;5036236;28;20244;-82
2021/04/13 02:05:46;;;;;;;8.20;6.00;;;0.50;99.90;;;;;;5054774;28;20204;-81
2021/04/13 02:08:19;;;;;;;10.00;6.23;;;0.50;99.90;;;;;;5060705;28;20265;-81
2021/04/13 02:10:54;;;;;;;10.80;6.77;;;0.50;99.90;;;;;;5047270;28;20652;-81
2021/04/13 02:13:24;;;;;;;12.10;6.17;;;0.50;99.90;;;;;;5034706;28;20330;-81
2021/04/13 02:15:58;;;;;;;9.17;6.27;;;0.50;99.90;;;;;;5034988;28;20229;-82
2021/04/13 02:18:30;;;;;;;9.83;6.20;;;0.60;99.90;;;;;;5034490;28;20283;-81
2021/04/13 02:20:58;;;;;;;8.93;6.80;;;0.60;99.90;;;;;;5048512;28;20290;-80
2021/04/13 02:23:28;;;;;;;10.37;6.80;;;0.70;99.90;;;;;;5065583;28;20325;-81
2021/04/13 02:25:56;;;;;;;9.40;6.70;;;0.70;99.90;;;;;;5052902;28;20325;-81
2021/04/13 02:28:24;;;;;;;8.30;6.37;;;0.80;99.90;;;;;;5054066;28;20379;-80
2021/04/13 02:30:51;;;;;;;10.00;6.67;;;0.70;99.90;;;;;;5052427;28;20296;-80
2021/04/13 02:33:29;;;;;;;8.37;6.17;;;0.70;99.90;;;;;;5042842;28;20340;-80
2021/04/13 02:35:56;;;;;;;9.03;6.83;;;0.70;99.90;;;;;;5058376;28;20349;-80
2021/04/13 02:38:28;;;;;;;11.77;6.40;;;0.60;99.90;;;;;;5051681;28;20280;-80
2021/04/13 02:41:01;;;;;;;8.40;6.43;;;0.70;99.90;;;;;;5039114;28;20227;-81
2021/04/13 02:43:32;;;;;;;10.53;6.33;;;0.70;99.90;;;;;;5052671;28;20195;-80
2021/04/13 02:46:05;;;;;;;12.47;6.57;;;0.70;99.90;;;;;;5053982;28;20207;-80
2021/04/13 02:48:40;;;;;;;12.23;6.17;;;0.70;99.90;;;;;;5054569;28;20289;-80
2021/04/13 02:51:10;;;;;;;10.77;6.53;;;0.70;99.90;;;;;;5045980;28;20691;-80
2021/04/13 02:53:42;;;;;;;10.53;7.10;;;0.70;99.90;;;;;;5034063;28;20668;-80
2021/04/13 02:56:12;;;;;;;9.23;6.57;;;0.80;99.90;;;;;;5039846;28;20316;-80
2021/04/13 02:58:44;;;;;;;12.60;6.50;;;0.70;99.90;;;;;;5033731;28;20287;-81
2021/04/13 03:01:13;;;;;;;12.67;6.53;;;0.80;99.90;;;;;;5041418;28;20272;-80
2021/04/13 03:03:42;;;;;;;8.90;6.47;;;0.70;99.90;;;;;;5053603;28;20224;-80
2021/04/13 03:06:09;;;;;;;8.43;6.03;;;0.60;99.90;;;;;;5054082;28;20232;-80
2021/04/13 03:08:39;;;;;;;8.80;5.77;;;0.60;99.90;;;;;;5039575;28;20752;-80
2021/04/13 03:11:11;;;;;;;9.60;5.90;;;0.60;99.90;;;;;;5034546;28;20328;-81
2021/04/13 03:13:39;;;;;;;10.40;6.00;;;0.50;99.90;;;;;;5033542;28;20311;-80
2021/04/13 03:16:06;;;;;;;8.90;5.67;;;0.30;99.90;;;;;;5036775;28;20303;-81
2021/04/13 03:18:41;;;;;;;8.50;5.63;;;0.20;99.90;;;;;;5033809;28;20254;-80
2021/04/13 03:21:12;;;;;;;9.87;5.80;;;0.20;99.90;;;;;;5061117;28;20636;-81
2021/04/13 03:23:41;;;;;;;10.40;6.17;;;0.20;99.90;;;;;;5053381;28;20287;-80
2021/04/13 03:26:10;;;;;;;8.50;6.10;;;0.10;99.90;;;;;;5052943;28;20676;-80
2021/04/13 03:28:40;;;;;;;7.40;5.80;;;0.10;99.90;;;;;;5042915;28;20318;-81
2021/04/13 03:31:07;;;;;;;9.10;6.17;;;0.20;99.90;;;;;;5053108;28;20212;-81
2021/04/13 03:33:37;;;;;;;10.50;6.30;;;0.10;99.90;;;;;;5051552;28;20597;-80
2021/04/13 03:36:07;;;;;;;7.83;5.87;;;0.00;99.90;;;;;;5032797;28;20315;-80
2021/04/13 03:38:36;;;;;;;9.10;6.07;;;0.00;99.90;;;;;;5033183;28;20304;-81
2021/04/13 03:41:03;;;;;;;10.50;6.27;;;0.00;99.90;;;;;;5032835;28;20243;-80
2021/04/13 03:43:31;;;;;;;9.30;5.83;;;0.00;99.90;;;;;;5051688;28;20203;-81
2021/04/13 03:46:04;;;;;;;9.67;5.83;;;0.00;99.90;;;;;;5052807;28;20200;-81
2021/04/13 03:48:32;;;;;;;13.97;6.33;;;0.00;99.90;;;;;;5053028;28;20223;-81
2021/04/13 03:51:03;;;;;;;7.90;6.00;;;0.10;99.90;;;;;;5053032;28;20287;-81
2021/04/13 03:53:33;;;;;;;11.27;5.90;;;0.00;99.90;;;;;;5052651;28;20293;-81
2021/04/13 03:56:04;;;;;;;8.80;6.17;;;0.00;99.90;;;;;;5052689;28;20306;-81
2021/04/13 03:58:38;;;;;;;9.43;6.07;;;0.00;99.90;;;;;;5068896;28;20273;-79
2021/04/13 04:01:06;;;;;;;10.40;6.47;;;0.00;99.90;;;;;;5039779;28;20282;-80
2021/04/13 04:03:37;;;;;;;8.83;5.77;;;0.00;99.90;;;;;;5052198;28;20576;-82
2021/04/13 04:06:05;;;;;;;10.33;6.47;;;0.10;99.90;;;;;;5052989;28;20206;-81
2021/04/13 04:08:38;;;;;;;9.13;5.87;;;0.10;99.90;;;;;;5052464;28;20203;-81
2021/04/13 04:11:07;;;;;;;9.37;6.13;;;0.10;99.90;;;;;;5053249;28;20571;-82
2021/04/13 04:13:38;;;;;;;9.73;6.13;;;0.10;99.90;;;;;;5050953;28;20243;-81
2021/04/13 04:16:09;;;;;;;7.97;6.00;;;0.10;99.90;;;;;;5039891;28;20607;-81
2021/04/13 04:18:38;;;;;;;13.60;6.40;;;0.00;99.90;;;;;;5042681;28;20193;-81
2021/04/13 04:21:19;;;;;;;9.87;5.93;;;0.00;99.90;;;;;;5034878;28;20587;-81
2021/04/13 04:23:45;;;;;;;7.87;6.13;;;-0.10;99.90;;;;;;5032601;28;20254;-81
2021/04/13 04:26:21;;;;;;;11.53;6.30;;;0.00;99.90;;;;;;5032391;28;20747;-81
2021/04/13 04:28:48;;;;;;;9.23;6.30;;;-0.10;99.90;;;;;;5050020;28;20295;-82
2021/04/13 04:31:36;;;;;;;10.17;6.53;;;-0.10;99.90;;;;;;5052145;28;20652;-81
2021/04/13 04:34:40;;;;;;;15.07;6.63;;;-0.20;99.90;;;;;;5052033;28;20311;-82
2021/04/13 04:37:29;;;;;;;10.20;6.50;;;-0.10;99.90;;;;;;5047608;28;20251;-80
2021/04/13 04:40:18;;;;;;;11.50;6.87;;;-0.20;99.90;;;;;;5032043;28;20716;-82
2021/04/13 04:42:54;;;;;;;10.87;6.70;;;-0.30;99.90;;;;;;5049406;28;20228;-81
2021/04/13 04:45:38;;;;;;;9.83;6.43;;;-0.30;99.90;;;;;;5056496;28;20290;-81
2021/04/13 04:48:24;;;;;;;10.50;5.87;;;-0.20;99.90;;;;;;5051516;28;20287;-82
2021/04/13 04:50:52;;;;;;;9.13;6.20;;;-0.10;99.90;;;;;;5031975;28;20211;-81
2021/04/13 04:53:20;;;;;;;10.77;6.50;;;0.00;99.90;;;;;;5045491;28;20286;-80
2021/04/13 04:55:49;;;;;;;9.77;6.10;;;0.00;99.90;;;;;;5034966;28;20291;-81
2021/04/13 04:58:17;;;;;;;8.77;5.97;;;0.00;99.90;;;;;;5041306;28;20270;-81
2021/04/13 05:00:43;;;;;;;11.23;6.10;;;-0.10;99.90;;;;;;5043591;28;20199;-81
2021/04/13 05:03:09;;;;;;;8.77;6.23;;;-0.20;99.90;;;;;;5052116;28;20236;-81
2021/04/13 05:05:36;;;;;;;13.30;6.20;;;-0.10;99.90;;;;;;5050727;28;20282;-80
2021/04/13 05:08:02;;;;;;;11.30;6.63;;;0.00;99.90;;;;;;5046287;28;20242;-81
2021/04/13 05:10:29;;;;;;;11.10;6.60;;;0.10;99.90;;;;;;5051504;28;20299;-79
2021/04/13 05:12:55;;;;;;;9.37;5.93;;;0.20;99.90;;;;;;5049365;28;20298;-79
2021/04/13 05:15:23;;;;;;;11.07;6.43;;;0.20;99.90;;;;;;5051459;28;20290;-80
2021/04/13 05:17:49;;;;;;;11.00;6.80;;;0.40;99.90;;;;;;5051723;28;20227;-80
2021/04/13 05:20:16;;;;;;;10.03;6.53;;;0.30;99.90;;;;;;5051268;28;20244;-81
2021/04/13 05:22:44;;;;;;;10.43;6.90;;;0.40;99.90;;;;;;5049319;28;20234;-82
2021/04/13 05:25:11;;;;;;;11.07;7.10;;;0.50;99.90;;;;;;5051149;28;20204;-81
2021/04/13 05:27:38;;;;;;;10.23;6.97;;;0.50;99.90;;;;;;5048715;28;20207;-81
2021/04/13 05:30:07;;;;;;;10.97;6.93;;;0.60;99.90;;;;;;5038907;28;20240;-81
2021/04/13 05:32:34;;;;;;;11.03;6.97;;;0.60;99.90;;;;;;5051334;28;20263;-82
2021/04/13 05:35:01;;;;;;;10.60;6.73;;;0.60;99.90;;;;;;5051681;28;20294;-81
2021/04/13 05:37:29;;;;;;;12.17;7.00;;;0.50;99.90;;;;;;5047652;28;20307;-82
2021/04/13 05:39:55;;;;;;;9.47;6.80;;;0.50;99.90;;;;;;5048230;28;20197;-81
2021/04/13 05:42:26;;;;;;;12.07;7.10;;;0.50;99.90;;;;;;5045068;28;20660;-82
2021/04/13 05:44:54;;;;;;;10.90;6.50;;;0.60;99.90;;;;;;5046331;28;20684;-82
2021/04/13 05:47:21;;;;;;;11.90;7.73;;;0.60;99.90;;;;;;5035582;28;20188;-82
2021/04/13 05:49:48;;;;;;;9.33;6.60;;;0.70;99.90;;;;;;5047285;28;20647;-82
2021/04/13 05:52:15;;;;;;;11.10;6.93;;;0.90;99.90;;;;;;5038273;28;20197;-81
2021/04/13 05:54:41;;;;;;;11.50;7.17;;;1.00;99.90;;;;;;5046071;28;20284;-81
2021/04/13 05:57:11;;;;;;;10.80;7.13;;;1.20;99.90;;;;;;5035835;28;20605;-81
2021/04/13 05:59:37;;;;;;;10.03;6.80;;;1.40;99.90;;;;;;5042308;28;20232;-82
2021/04/13 06:02:05;;;;;;;10.23;7.00;;;1.70;99.90;;;;;;5042447;28;20285;-82
2021/04/13 06:04:31;;;;;;;12.27;7.37;;;2.10;99.90;;;;;;5049850;28;20288;-82
2021/04/13 06:06:59;;;;;;;9.23;7.03;;;2.50;99.90;;;;;;5042412;28;20276;-82
2021/04/13 06:09:25;;;;;;;7.97;6.10;;;2.90;99.90;;;;;;5036580;28;20291;-82
2021/04/13 06:11:52;;;;;;;7.90;5.63;;;3.20;99.90;;;;;;5047074;28;20211;-82
2021/04/13 06:14:21;;;;;;;9.57;5.57;;;3.70;99.90;;;;;;5042182;28;20350;-82
2021/04/13 06:16:49;;;;;;;7.07;5.37;;;3.80;99.90;;;;;;5050680;28;20216;-82
2021/04/13 06:19:15;;;;;;;6.77;5.23;;;4.00;99.90;;;;;;5041947;28;20237;-83
2021/04/13 06:21:42;;;;;;;10.53;6.20;;;4.40;99.90;;;;;;5049756;28;20234;-82
2021/04/13 06:24:11;;;;;;;7.87;5.77;;;4.90;99.90;;;;;;5042011;28;20664;-82
2021/04/13 06:26:38;;;;;;;8.50;6.03;;;5.40;99.90;;;;;;5061761;28;20634;-82
2021/04/13 06:29:05;;;;;;;8.40;6.20;;;5.70;99.90;;;;;;5045146;28;20283;-82
2021/04/13 06:31:31;;;;;;;9.17;6.67;;;6.10;99.90;;;;;;5052388;28;20693;-82
2021/04/13 06:33:58;;;;;;;6.87;5.60;;;6.80;99.90;;;;;;5045330;28;20331;-82
2021/04/13 06:36:27;;;;;;;12.90;6.43;;;7.30;99.90;;;;;;5046429;28;20369;-82
2021/04/13 06:38:54;;;;;;;7.67;6.30;;;7.90;99.90;;;;;;5051670;28;20200;-82
2021/04/13 06:41:35;;;;;;;7.90;5.73;;;8.10;99.90;;;;;;5053090;28;20996;-83
2021/04/13 06:44:15;;;;;;;6.27;5.50;;;8.50;99.90;;;;;;5033941;28;20241;-82
2021/04/13 06:46:51;;;;;;;6.93;5.73;;;8.80;99.90;;;;;;5034254;28;20283;-83
2021/04/13 06:49:36;;;;;;;7.00;5.83;;;9.40;99.90;;;;;;5043677;28;20282;-82
2021/04/13 06:52:14;;;;;;;8.97;5.90;;;9.50;99.90;;;;;;5040035;28;20296;-82
2021/04/13 06:54:43;;;;;;;9.83;6.20;;;9.60;99.90;;;;;;5036032;28;20226;-82
2021/04/13 06:57:31;;;;;;;7.00;6.17;;;9.00;99.90;;;;;;5053143;28;20310;-83
2021/04/13 07:00:09;;;;;;;9.40;6.10;;;9.50;99.90;;;;;;5051402;28;20290;-83
2021/04/13 07:02:44;;;;;;;5.97;5.37;;;9.20;99.90;;;;;;5043703;28;20223;-83
2021/04/13 07:05:15;;;;;;;6.80;5.53;;;9.60;99.90;;;;;;5052269;28;20297;-83
2021/04/13 07:07:51;;;;;;;6.33;5.73;;;9.90;99.90;;;;;;5048898;28;20203;-83
2021/04/13 07:10:44;;;;;;;6.50;5.40;;;9.80;99.90;;;;;;5047845;28;20199;-80
2021/04/13 07:13:38;;;;;;;6.47;5.60;;;10.50;99.90;;;;;;5036639;28;20227;-80
2021/04/13 07:16:36;;;;;;;6.03;5.43;;;10.80;99.90;;;;;;5041410;28;20346;-80
2021/04/13 07:19:26;;;;;;;6.57;5.63;;;10.80;99.90;;;;;;5062105;28;20209;-79
2021/04/13 07:22:20;;;;;;;;;;;;;;;;;;;;;
2021/04/13 07:24:52;;;;;;;6.57;5.83;;;11.00;99.90;;;;;;5050511;28;20571;-79
2021/04/13 07:27:30;;;;;;;6.43;5.77;;;11.10;99.90;;;;;;5046896;28;20197;-80
2021/04/13 07:30:05;;;;;;;6.03;5.43;;;11.30;99.90;;;;;;5041325;28;20196;-80
2021/04/13 07:32:33;;;;;;;7.40;6.60;;;12.10;99.90;;;;;;5042566;28;20236;-80
2021/04/13 07:35:00;;;;;;;8.23;7.37;;;11.10;99.90;;;;;;5050101;28;20675;-80
2021/04/13 07:37:32;;;;;;;8.20;7.20;;;11.90;99.90;;;;;;5050647;28;20251;-80
2021/04/13 07:40:02;;;;;;;8.27;7.40;;;11.50;99.90;;;;;;5048786;28;20284;-80
2021/04/13 07:42:31;;;;;;;7.57;6.80;;;11.30;99.90;;;;;;5042107;28;20943;-81
2021/04/13 07:45:28;;;;;;;7.63;6.83;;;11.10;99.90;;;;;;5042834;28;20706;-84
2021/04/13 07:48:04;;;;;;;7.77;7.03;;;11.70;99.90;;;;;;5038775;28;20645;-86
2021/04/13 07:50:38;;;;;;;7.60;6.90;;;11.50;99.90;;;;;;5041305;28;20345;-79
2021/04/13 07:53:12;;;;;;;7.83;7.10;;;11.20;99.90;;;;;;5059499;28;20744;-80
2021/04/13 07:55:53;;;;;;;7.87;6.77;;;10.70;99.90;;;;;;5039120;28;20391;-80
2021/04/13 07:58:37;;;;;;;7.70;6.70;;;10.40;99.90;;;;;;5044039;28;20231;-80
2021/04/13 08:01:07;;;;;;;6.73;6.03;;;10.30;99.90;;;;;;5036871;28;20232;-81
2021/04/13 08:03:35;;;;;;;6.77;6.03;;;11.40;99.90;;;;;;5041656;28;20286;-81
2021/04/13 08:06:04;;;;;;;6.83;6.23;;;11.40;99.90;;;;;;5032367;28;20207;-82
2021/04/13 08:08:33;;;;;;;7.20;6.50;;;12.10;99.90;;;;;;5037828;28;20242;-81
2021/04/13 08:11:12;;;;;;;6.80;6.10;;;11.70;99.90;;;;;;5041387;28;20722;-82
2021/04/13 08:13:40;;;;;;;6.40;5.80;;;11.50;99.90;;;;;;5045732;28;20265;-80
2021/04/13 08:16:27;;;;;;;5.80;5.30;;;11.80;99.90;;;;;;5049800;28;20995;-80
2021/04/13 08:19:10;;;;;;;5.97;5.37;;;11.20;99.90;;;;;;5043003;28;20289;-81
2021/04/13 08:21:37;;;;;;;6.03;5.40;;;11.20;99.90;;;;;;5031961;28;20299;-82
2021/04/13 08:24:04;;;;;;;6.47;5.87;;;10.60;99.90;;;;;;5048115;28;20203;-81
2021/04/13 08:26:44;;;;;;;7.23;5.43;;;11.40;99.90;;;;;;5058569;28;20671;-83
2021/04/13 08:30:06;;;;;;;6.17;5.40;;;11.70;99.90;;;;;;5040870;28;20288;-82
2021/04/13 08:32:54;;;;;;;6.23;5.53;;;11.40;99.90;;;;;;5049206;28;20306;-80
2021/04/13 08:35:32;;;;;;;6.55;5.95;;;11.30;99.90;;;;;;5049732;28;20446;-80
2021/04/13 08:38:17;;;;;;;7.07;5.87;;;12.20;99.90;;;;;;5037630;28;20699;-84
2021/04/13 08:41:06;;;;;;;6.43;5.90;;;12.80;99.90;;;;;;5044749;28;20589;-82
2021/04/13 08:43:49;;;;;;;6.40;5.73;;;13.00;99.90;;;;;;5036417;28;20204;-82
2021/04/13 08:46:25;;;;;;;6.47;5.27;;;12.70;99.90;;;;;;5057135;28;20199;-83
2021/04/13 08:49:00;;;;;;;6.67;5.97;;;12.10;99.90;;;;;;5044367;28;20212;-82
2021/04/13 08:51:36;;;;;;;8.40;5.90;;;13.00;99.90;;;;;;5049605;28;20203;-81
2021/04/13 08:54:29;;;;;;;7.27;6.43;;;13.50;99.90;;;;;;5038549;28;20204;-84
2021/04/13 08:57:02;;;;;;;6.13;5.23;;;12.80;99.90;;;;;;5035465;28;20216;-83
2021/04/13 08:59:41;;;;;;;5.83;5.20;;;12.10;99.90;;;;;;5043798;28;20208;-82
2021/04/13 09:02:10;;;;;;;7.50;6.27;;;12.20;99.90;;;;;;5056145;28;20227;-80
2021/04/13 09:04:37;;;;;;;5.90;5.30;;;12.10;99.90;;;;;;5038837;28;20231;-80
2021/04/13 09:07:08;;;;;;;6.10;5.50;;;12.70;99.90;;;;;;5046206;28;20291;-80
2021/04/13 09:09:42;;;;;;;6.30;5.60;;;13.00;99.90;;;;;;5033332;28;20234;-81
2021/04/13 09:12:22;;;;;;;6.10;5.40;;;13.10;99.90;;;;;;5044479;28;20237;-81
2021/04/13 09:14:53;;;;;;;5.80;5.30;;;13.50;99.90;;;;;;5044496;28;20219;-81
2021/04/13 09:17:32;;;;;;;5.83;5.27;;;13.70;99.90;;;;;;5040695;28;20223;-80
2021/04/13 09:20:12;;;;;;;5.93;5.33;;;14.40;99.50;;;;;;5039854;28;20207;-80
2021/04/13 09:22:50;;;;;;;5.97;5.37;;;14.10;98.00;;;;;;5047135;28;20586;-81
2021/04/13 09:25:32;;;;;;;6.27;5.67;;;14.00;98.10;;;;;;5046645;28;20233;-80
2021/04/13 09:28:08;;;;;;;5.87;5.33;;;13.60;98.40;;;;;;5048682;28;20196;-81
2021/04/13 09:30:37;;;;;;;6.33;5.73;;;15.50;98.90;;;;;;5052207;28;20287;-80
2021/04/13 09:33:12;;;;;;;6.13;5.53;;;14.80;97.30;;;;;;5039027;28;20318;-81
2021/04/13 09:36:03;;;;;;;5.90;5.30;;;15.50;98.00;;;;;;5042848;28;20254;-81
2021/04/13 09:39:17;;;;;;;5.70;5.20;;;15.30;94.60;;;;;;5046162;28;20248;-81
2021/04/13 09:41:59;;;;;;;7.20;5.30;;;14.90;92.20;;;;;;5040274;28;20241;-81
2021/04/13 09:45:03;;;;;;;5.90;5.30;;;15.10;91.70;;;;;;5040294;28;20744;-80
2021/04/13 09:48:21;;;;;;;5.90;5.30;;;14.30;90.70;;;;;;5046789;28;20235;-82
2021/04/13 09:51:02;;;;;;;7.00;5.40;;;14.20;93.00;;;;;;5039139;28;20208;-80
2021/04/13 09:53:52;;;;;;;5.00;4.60;;;14.50;93.50;;;;;;5045701;28;20243;-80
2021/04/13 09:56:31;;;;;;;5.60;5.10;;;13.60;90.50;;;;;;5052635;28;20362;-81
2021/04/13 09:59:24;;;;;;;5.13;4.63;;;14.80;91.20;;;;;;5044831;28;20318;-82
2021/04/13 10:01:59;;;;;;;5.97;5.30;;;15.50;86.50;;;;;;5038442;28;20499;-83
2021/04/13 10:04:39;;;;;;;5.53;5.03;;;15.30;93.80;;;;;;5052946;28;20237;-85
2021/04/13 10:07:31;;;;;;;5.20;4.67;;;16.70;87.40;;;;;;5060305;28;20283;-84
2021/04/13 10:10:05;;;;;;;5.13;4.43;;;15.00;83.70;;;;;;5052307;28;20204;-84
2021/04/13 10:13:19;;;;;;;5.20;4.70;;;15.30;85.60;;;;;;5050163;28;20227;-82
2021/04/13 10:16:37;;;;;;;4.63;4.23;;;15.40;80.20;;;;;;5000587;28;20217;-81
2021/04/13 10:19:50;;;;;;;5.37;4.87;;;14.30;81.10;;;;;;5007703;28;20264;-82
2021/04/13 10:22:53;;;;;;;4.67;4.27;;;14.10;82.60;;;;;;4901665;29;20264;-83
2021/04/13 10:25:50;;;;;;;4.97;4.57;;;14.70;84.30;;;;;;4908158;29;20197;-83
2021/04/13 10:28:33;;;;;;;5.50;5.00;;;15.10;79.80;;;;;;4828697;29;20211;-83
2021/04/13 10:31:21;;;;;;;5.37;4.87;;;14.70;82.30;;;;;;4829737;29;20235;-83
2021/04/13 10:34:26;;;;;;;6.87;4.97;;;14.50;77.90;;;;;;4830694;29;20322;-83
2021/04/13 10:37:30;;;;;;;6.20;5.60;;;14.80;81.20;;;;;;4832770;29;20306;-83
2021/04/13 10:40:14;;;;;;;7.43;6.63;;;14.90;80.80;;;;;;4822543;29;20204;-83
2021/04/13 10:43:28;;;;;;;6.57;5.80;;;14.20;86.20;;;;;;4831221;29;20207;-84
2021/04/13 10:46:23;;;;;;;5.73;5.13;;;14.70;85.90;;;;;;4840515;29;20216;-81
2021/04/13 10:49:35;;;;;;;6.83;5.63;;;15.60;81.10;;;;;;4896567;29;20296;-84
2021/04/13 10:52:45;;;;;;;6.30;5.70;;;14.90;80.50;;;;;;4894547;29;20345;-84
2021/04/13 10:56:05;;;;;;;6.80;6.10;;;15.20;78.60;;;;;;4860812;29;20608;-85
2021/04/13 10:59:05;;;;;;;7.43;6.00;;;14.80;86.40;;;;;;4838703;29;20225;-83
2021/04/13 11:02:06;;;;;;;6.70;6.10;;;15.30;84.20;;;;;;4879723;29;20301;-86
2021/04/13 11:05:18;;;;;;;6.50;5.70;;;15.40;82.00;;;;;;4870457;29;20692;-83
2021/04/13 11:08:28;;;;;;;6.97;6.27;;;14.80;80.30;;;;;;4889705;29;20229;-83
2021/04/13 11:11:18;;;;;;;8.40;6.27;;;14.60;82.30;;;;;;4892914;29;20219;-83
2021/04/13 11:14:13;;;;;;;6.50;5.90;;;15.40;86.00;;;;;;4881008;29;20234;-84
2021/04/13 11:17:14;;;;;;;5.93;5.43;;;16.20;82.40;;;;;;4889535;29;20288;-84
2021/04/13 11:19:58;;;;;;;6.37;5.77;;;17.10;86.90;;;;;;4892076;29;20260;-82
2021/04/13 11:23:06;;;;;;;6.50;5.60;;;15.50;77.80;;;;;;4895431;29;20220;-84
2021/04/13 11:26:20;;;;;;;6.83;6.13;;;14.50;78.40;;;;;;4881778;29;20639;-84
2021/04/13 11:29:32;;;;;;;5.70;5.07;;;16.00;80.90;;;;;;4890396;29;20299;-84
2021/04/13 11:32:35;;;;;;;6.03;5.17;;;15.50;79.80;;;;;;4974669;28;20330;-84
2021/04/13 11:35:11;;;;;;;5.27;4.77;;;15.70;77.90;;;;;;5045043;28;20680;-86
2021/04/13 11:38:10;;;;;;;7.40;5.70;;;16.20;79.10;;;;;;5046296;28;20220;-84
2021/04/13 11:40:50;;;;;;;5.70;5.20;;;15.60;79.60;;;;;;5039432;28;20289;-82
2021/04/13 11:43:22;;;;;;;6.93;5.53;;;15.90;75.30;;;;;;5039432;28;20204;-85
2021/04/13 11:46:00;;;;;;;5.97;4.70;;;16.50;75.20;;;;;;5041574;28;20286;-84
2021/04/13 11:48:36;;;;;;;5.27;4.77;;;16.50;74.20;;;;;;5039583;28;20262;-85
2021/04/13 11:51:06;;;;;;;5.63;5.03;;;16.00;77.50;;;;;;5036214;28;20207;-85
2021/04/13 11:53:38;;;;;;;5.73;5.17;;;15.70;76.40;;;;;;5046767;28;20675;-85
2021/04/13 11:56:33;;;;;;;6.13;5.20;;;15.80;79.10;;;;;;5047326;28;20215;-84
2021/04/13 11:59:21;;;;;;;5.80;5.00;;;16.10;73.80;;;;;;5047351;28;20191;-81
2021/04/13 12:01:50;;;;;;;6.03;5.30;;;15.70;75.10;;;;;;5039747;28;20200;-79
2021/04/13 12:04:18;;;;;;;6.07;5.47;;;14.90;73.90;;;;;;5046176;28;20196;-78
2021/04/13 12:06:56;;;;;;;6.60;5.90;;;15.10;80.00;;;;;;5040110;28;20231;-79
2021/04/13 12:09:38;;;;;;;6.10;5.50;;;15.00;80.80;;;;;;5048203;28;20286;-82
2021/04/13 12:12:08;;;;;;;6.10;5.50;;;16.10;83.90;;;;;;5042341;28;20208;-80
2021/04/13 12:14:44;;;;;;;5.70;5.10;;;15.20;77.90;;;;;;5038628;28;20204;-79
2021/04/13 12:17:34;;;;;;;5.33;4.83;;;15.20;70.70;;;;;;5048606;28;20303;-80
2021/04/13 12:20:35;;;;;;;5.70;4.80;;;14.10;71.70;;;;;;5043420;28;20817;-80
2021/04/13 12:23:22;;;;;;;4.53;4.13;;;14.50;72.40;;;;;;5040865;28;20452;-80
2021/04/13 12:26:06;;;;;;;5.43;4.63;;;15.50;73.10;;;;;;5044795;28;20970;-79
2021/04/13 12:28:50;;;;;;;5.33;4.80;;;15.30;73.00;;;;;;5041409;28;20542;-79
2021/04/13 12:31:26;;;;;;;5.70;4.43;;;15.90;71.50;;;;;;5037042;28;20200;-80
2021/04/13 12:34:02;;;;;;;4.73;3.97;;;15.30;75.90;;;;;;5045568;28;20714;-79
2021/04/13 12:36:57;;;;;;;4.80;4.03;;;15.20;64.00;;;;;;5040111;28;20298;-80
2021/04/13 12:39:44;;;;;;;5.07;4.57;;;15.60;67.50;;;;;;5046495;28;20192;-79
2021/04/13 12:42:28;;;;;;;4.80;4.30;;;14.80;71.20;;;;;;5038809;28;20235;-80
2021/04/13 12:45:17;;;;;;;3.80;3.50;;;15.60;67.50;;;;;;5048902;28;20230;-79
2021/04/13 12:47:45;;;;;;;5.67;4.10;;;16.20;72.10;;;;;;5038707;28;20278;-80
2021/04/13 12:50:14;;;;;;;4.50;4.00;;;17.40;73.60;;;;;;5032858;28;20207;-80
2021/04/13 12:52:40;;;;;;;4.50;4.10;;;15.70;70.20;;;;;;5043290;28;20231;-79
2021/04/13 12:55:13;;;;;;;4.33;3.93;;;15.40;68.20;;;;;;5042348;28;20196;-79
2021/04/13 12:57:51;;;;;;;4.40;4.00;;;15.40;68.90;;;;;;5050109;28;20310;-80
2021/04/13 13:00:19;;;;;;;4.33;3.90;;;15.40;68.90;;;;;;5043741;28;20668;-80
2021/04/13 13:02:48;;;;;;;4.13;3.73;;;15.10;72.30;;;;;;5051075;28;20748;-79
2021/04/13 13:05:20;;;;;;;4.33;3.77;;;15.60;75.60;;;;;;5047864;28;20290;-80
2021/04/13 13:07:54;;;;;;;4.20;3.63;;;16.20;70.40;;;;;;5046633;28;20224;-79
2021/04/13 13:10:25;;;;;;;4.07;3.60;;;15.50;74.70;;;;;;5036062;28;20231;-79
2021/04/13 13:12:51;;;;;;;4.50;3.87;;;15.10;70.30;;;;;;5047543;28;20251;-78
2021/04/13 13:15:18;;;;;;;4.13;3.70;;;15.60;71.30;;;;;;5040083;28;20287;-78
2021/04/13 13:17:50;;;;;;;4.70;3.50;;;14.90;74.80;;;;;;5038956;28;20227;-80
2021/04/13 13:20:29;;;;;;;3.90;3.50;;;14.60;70.40;;;;;;5042809;28;20589;-78
2021/04/13 13:22:56;;;;;;;4.00;3.37;;;15.20;70.50;;;;;;5033623;28;20224;-78
2021/04/13 13:25:26;;;;;;;4.13;3.37;;;15.20;66.70;;;;;;5043109;28;20668;-81
2021/04/13 13:28:03;;;;;;;3.50;3.20;;;14.10;69.10;;;;;;5054785;28;20287;-80
2021/04/13 13:30:31;;;;;;;3.47;3.00;;;14.80;75.10;;;;;;5046827;28;20337;-80
2021/04/13 13:32:58;;;;;;;4.20;3.40;;;15.90;71.80;;;;;;5048432;28;20282;-81
2021/04/13 13:35:25;;;;;;;3.60;3.30;;;15.10;71.90;;;;;;5035445;28;20246;-81
2021/04/13 13:37:55;;;;;;;4.10;3.43;;;15.40;68.60;;;;;;5054364;28;20470;-80
2021/04/13 13:40:24;;;;;;;3.80;3.40;;;14.40;68.00;;;;;;5051329;28;20292;-80